createdAt,value
2022-12-26T00:00:17.652Z,77.60
2022-12-26T00:02:50.977Z,77.70
2022-12-26T00:05:17.939Z,77.60
2022-12-26T00:07:50.946Z,77.90
2022-12-26T00:10:17.887Z,77.70
2022-12-26T00:12:50.940Z,77.60
2022-12-26T00:15:17.870Z,77.40
2022-12-26T00:17:50.914Z,77.30
2022-12-26T00:20:24.045Z,77.60
2022-12-26T00:23:03.940Z,77.90
2022-12-26T00:25:31.153Z,77.60
2022-12-26T00:28:04.964Z,77.40
2022-12-26T00:30:32.011Z,77.10
2022-12-26T00:33:05.941Z,76.90
2022-12-26T00:35:32.862Z,77.10
2022-12-26T00:38:05.941Z,77.00
2022-12-26T00:40:38.951Z,77.30
2022-12-26T00:43:05.825Z,77.10
2022-12-26T00:45:32.722Z,76.90
2022-12-26T00:48:05.922Z,77.10
2022-12-26T00:50:38.905Z,77.00
2022-12-26T00:53:05.841Z,77.10
2022-12-26T00:55:38.899Z,77.20
2022-12-26T00:58:11.941Z,77.30
2022-12-26T01:00:45.005Z,77.00
2022-12-26T01:03:12.081Z,77.10
2022-12-26T01:05:50.071Z,77.20
2022-12-26T01:08:20.131Z,77.20
2022-12-26T01:10:56.936Z,77.10
2022-12-26T01:13:23.935Z,77.10
2022-12-26T01:15:57.957Z,77.10
2022-12-26T01:18:24.960Z,77.20
2022-12-26T01:21:07.117Z,77.20
2022-12-26T01:23:40.178Z,77.40
2022-12-26T01:26:16.349Z,77.50
2022-12-26T01:28:46.313Z,77.10
2022-12-26T01:31:20.005Z,76.80
2022-12-26T01:33:47.427Z,76.60
2022-12-26T01:36:20.949Z,76.80
2022-12-26T01:38:48.120Z,76.60
2022-12-26T01:41:25.937Z,76.60
2022-12-26T01:44:03.918Z,76.70
2022-12-26T01:46:42.935Z,76.70
2022-12-26T01:49:23.002Z,76.70
2022-12-26T01:51:58.957Z,76.80
2022-12-26T01:54:40.130Z,77.00
2022-12-26T01:57:22.936Z,76.90
2022-12-26T01:59:50.578Z,76.70
2022-12-26T02:02:25.103Z,76.60
2022-12-26T02:05:17.905Z,76.50
2022-12-26T02:07:52.946Z,76.60
2022-12-26T02:10:35.092Z,76.50
2022-12-26T02:13:14.970Z,76.70
2022-12-26T02:15:42.266Z,76.60
2022-12-26T02:18:15.944Z,76.80
2022-12-26T02:21:08.144Z,76.50
2022-12-26T02:23:47.950Z,76.20
2022-12-26T02:26:24.924Z,76.40
2022-12-26T02:28:58.095Z,76.20
2022-12-26T02:31:51.039Z,76.20
2022-12-26T02:34:21.197Z,76.20
2022-12-26T02:37:00.975Z,76.30
2022-12-26T02:39:45.541Z,76.20
2022-12-26T02:42:19.992Z,76.30
2022-12-26T02:45:22.930Z,76.30
2022-12-26T02:47:52.689Z,76.40
2022-12-26T02:51:03.964Z,76.00
2022-12-26T02:53:49.442Z,76.10
2022-12-26T02:56:45.976Z,76.00
2022-12-26T02:59:54.914Z,75.80
2022-12-26T03:03:13.043Z,75.90
2022-12-26T03:06:07.000Z,75.90
2022-12-26T03:08:55.032Z,75.90
2022-12-26T03:11:48.978Z,75.90
2022-12-26T03:14:43.008Z,75.80
2022-12-26T03:17:20.457Z,75.80
2022-12-26T03:20:13.968Z,76.00
2022-12-26T03:22:49.962Z,76.30
2022-12-26T03:26:00.966Z,76.00
2022-12-26T03:28:28.214Z,76.30
2022-12-26T03:31:03.048Z,76.60
2022-12-26T03:33:52.722Z,76.50
2022-12-26T03:36:45.958Z,76.40
2022-12-26T03:39:50.577Z,76.10
2022-12-26T03:42:48.943Z,75.70
2022-12-26T03:45:47.225Z,75.80
2022-12-26T03:48:52.019Z,75.90
2022-12-26T03:51:56.964Z,75.90
2022-12-26T03:55:02.968Z,76.00
2022-12-26T03:58:07.013Z,76.10
2022-12-26T04:00:55.260Z,75.90
2022-12-26T04:03:48.979Z,75.90
2022-12-26T04:06:37.140Z,75.60
2022-12-26T04:09:40.977Z,75.70
2022-12-26T04:12:30.562Z,75.80
2022-12-26T04:15:28.046Z,75.70
2022-12-26T04:18:39.988Z,76.30
2022-12-26T04:21:54.991Z,76.00
2022-12-26T04:24:44.526Z,76.00
2022-12-26T04:27:38.978Z,76.30
2022-12-26T04:30:24.981Z,76.50
2022-12-26T04:33:20.024Z,75.90
2022-12-26T04:36:14.186Z,75.50
2022-12-26T04:39:07.950Z,75.40
2022-12-26T04:41:53.934Z,75.70
2022-12-26T04:44:30.989Z,75.70
2022-12-26T04:47:04.969Z,75.70
2022-12-26T04:50:06.949Z,75.70
2022-12-26T04:52:57.085Z,75.40
2022-12-26T04:55:31.055Z,75.40
2022-12-26T04:57:58.777Z,75.60
2022-12-26T05:00:34.966Z,75.30
2022-12-26T05:03:20.624Z,75.00
2022-12-26T05:06:14.940Z,75.10
2022-12-26T05:09:01.663Z,75.10
2022-12-26T05:11:35.971Z,75.10
2022-12-26T05:14:02.930Z,75.30
2022-12-26T05:16:54.956Z,75.50
2022-12-26T05:19:59.995Z,75.40
2022-12-26T05:22:53.975Z,75.60
2022-12-26T05:25:40.690Z,75.80
2022-12-26T05:28:36.004Z,75.60
2022-12-26T05:31:10.076Z,75.90
2022-12-26T05:33:55.545Z,75.50
2022-12-26T05:36:31.023Z,75.60
2022-12-26T05:39:04.933Z,75.60
2022-12-26T05:41:32.230Z,75.10
2022-12-26T05:44:05.960Z,75.00
2022-12-26T05:46:33.026Z,74.80
2022-12-26T05:49:06.957Z,74.70
2022-12-26T05:51:33.982Z,75.00
2022-12-26T05:54:06.973Z,75.00
2022-12-26T05:56:33.822Z,75.20
2022-12-26T05:59:07.936Z,75.20
2022-12-26T06:01:34.941Z,75.20
2022-12-26T06:04:08.978Z,75.50
2022-12-26T06:06:35.851Z,75.90
2022-12-26T06:09:08.931Z,76.00
2022-12-26T06:11:35.810Z,76.00
2022-12-26T06:14:08.928Z,76.00
2022-12-26T06:16:35.842Z,75.80
2022-12-26T06:19:08.965Z,75.50
2022-12-26T06:21:41.967Z,75.30
2022-12-26T06:24:21.965Z,75.30
2022-12-26T06:26:49.906Z,74.90
2022-12-26T06:29:22.988Z,74.90
2022-12-26T06:31:56.021Z,74.90
2022-12-26T06:34:22.965Z,75.00
2022-12-26T06:36:55.987Z,75.10
2022-12-26T06:39:29.992Z,75.30
2022-12-26T06:42:02.967Z,75.50
2022-12-26T06:44:35.991Z,75.30
2022-12-26T06:47:10.074Z,75.00
2022-12-26T06:49:37.202Z,75.40
2022-12-26T06:52:10.980Z,75.40
2022-12-26T06:54:38.098Z,75.40
2022-12-26T06:57:12.001Z,75.50
2022-12-26T06:59:38.876Z,75.50
2022-12-26T07:02:12.147Z,75.60
2022-12-26T07:04:46.002Z,75.70
2022-12-26T07:07:12.938Z,75.50
2022-12-26T07:09:46.041Z,75.70
2022-12-26T07:12:12.984Z,75.80
2022-12-26T07:14:45.967Z,76.00
2022-12-26T07:17:18.999Z,75.80
2022-12-26T07:19:52.386Z,75.90
2022-12-26T07:22:32.973Z,75.90
2022-12-26T07:24:59.858Z,75.70
2022-12-26T07:27:32.968Z,75.50
2022-12-26T07:30:05.957Z,75.70
2022-12-26T07:32:32.877Z,76.10
2022-12-26T07:35:05.991Z,76.00
2022-12-26T07:37:32.880Z,76.00
2022-12-26T07:40:05.963Z,75.80
2022-12-26T07:42:32.987Z,75.60
2022-12-26T07:45:05.942Z,75.60
2022-12-26T07:47:32.834Z,75.60
2022-12-26T07:50:06.973Z,75.60
2022-12-26T07:52:33.904Z,75.90
2022-12-26T07:55:07.052Z,75.90
2022-12-26T07:57:49.432Z,75.90
2022-12-26T08:00:16.823Z,75.90
2022-12-26T08:02:50.170Z,76.00
2022-12-26T08:05:17.655Z,75.80
2022-12-26T08:07:52.989Z,75.90
2022-12-26T08:10:25.990Z,76.00
2022-12-26T08:12:59.018Z,76.20
2022-12-26T08:15:25.894Z,76.20
2022-12-26T08:17:52.820Z,76.20
2022-12-26T08:20:26.199Z,76.30
2022-12-26T08:22:53.162Z,76.30
2022-12-26T08:25:22.028Z,76.30
2022-12-26T08:27:55.982Z,76.40
2022-12-26T08:30:22.898Z,76.40
2022-12-26T08:32:57.004Z,76.40
2022-12-26T08:35:23.884Z,76.30
2022-12-26T08:37:57.034Z,76.40
2022-12-26T08:40:42.658Z,76.40
2022-12-26T08:46:05.094Z,76.40
2022-12-26T08:48:39.048Z,76.40
2022-12-26T08:51:16.363Z,76.50
2022-12-26T08:53:50.020Z,76.50
2022-12-26T08:56:18.308Z,76.50
2022-12-26T08:58:51.971Z,76.50
2022-12-26T09:01:20.593Z,76.40
2022-12-26T09:03:54.018Z,76.40
2022-12-26T09:06:28.083Z,76.50
2022-12-26T09:08:55.089Z,76.70
2022-12-26T09:11:30.009Z,76.70
2022-12-26T09:13:57.816Z,76.90
2022-12-26T09:16:39.289Z,76.90
2022-12-26T09:19:09.643Z,77.00
2022-12-26T09:21:49.980Z,77.00
2022-12-26T09:24:30.002Z,77.30
2022-12-26T09:26:56.871Z,77.30
2022-12-26T09:29:30.032Z,77.10
2022-12-26T09:31:56.880Z,76.80
2022-12-26T09:34:29.947Z,76.70
2022-12-26T09:37:03.040Z,76.80
2022-12-26T09:39:29.953Z,76.90
2022-12-26T09:42:08.137Z,76.90
2022-12-26T09:44:45.715Z,76.90
2022-12-26T09:47:38.969Z,76.70
2022-12-26T09:50:11.420Z,76.40
2022-12-26T09:52:53.983Z,76.50
2022-12-26T09:55:46.120Z,76.50
2022-12-26T09:58:32.533Z,76.50
2022-12-26T10:01:27.083Z,76.40
2022-12-26T10:04:04.943Z,76.10
2022-12-26T10:06:46.943Z,76.10
2022-12-26T10:09:24.979Z,76.20
2022-12-26T10:11:55.032Z,76.70
2022-12-26T10:14:35.038Z,77.00
2022-12-26T10:17:10.908Z,76.40
2022-12-26T10:20:03.997Z,76.10
2022-12-26T10:22:43.963Z,76.10
2022-12-26T10:25:16.438Z,76.20
2022-12-26T10:27:52.997Z,76.50
2022-12-26T10:30:28.051Z,76.40
2022-12-26T10:33:04.969Z,76.40
2022-12-26T10:35:48.988Z,76.80
2022-12-26T10:38:15.927Z,76.80
2022-12-26T10:40:50.988Z,80.90
2022-12-26T10:43:27.037Z,82.40
2022-12-26T10:46:03.316Z,80.20
2022-12-26T10:48:37.592Z,78.20
2022-12-26T10:51:05.061Z,76.90
2022-12-26T10:53:48.007Z,76.50
2022-12-26T10:56:22.022Z,76.30
2022-12-26T10:58:58.794Z,76.20
2022-12-26T11:01:35.184Z,76.10
2022-12-26T11:04:03.472Z,75.90
2022-12-26T11:06:59.010Z,75.90
2022-12-26T11:09:42.142Z,75.80
2022-12-26T11:12:30.063Z,75.70
2022-12-26T11:14:58.478Z,75.80
2022-12-26T11:17:34.073Z,75.80
2022-12-26T11:20:23.136Z,75.70
2022-12-26T11:23:20.113Z,75.60
2022-12-26T11:25:55.159Z,75.80
2022-12-26T11:28:33.150Z,75.90
2022-12-26T11:31:14.057Z,76.10
2022-12-26T11:33:45.160Z,76.20
2022-12-26T11:36:25.036Z,77.00
2022-12-26T11:39:00.096Z,76.60
2022-12-26T11:41:43.005Z,76.30
2022-12-26T11:44:10.524Z,76.30
2022-12-26T11:46:45.110Z,76.20
2022-12-26T11:49:24.479Z,76.30
2022-12-26T11:51:59.827Z,76.60
2022-12-26T11:54:28.813Z,78.00
2022-12-26T11:57:07.971Z,78.70
2022-12-26T11:59:34.872Z,78.20
2022-12-26T12:02:29.246Z,77.40
2022-12-26T12:04:59.132Z,77.50
2022-12-26T12:07:51.056Z,77.50
2022-12-26T12:10:36.781Z,77.60
2022-12-26T12:13:34.006Z,78.00
2022-12-26T12:16:10.316Z,78.00
2022-12-26T12:18:50.068Z,78.00
2022-12-26T12:21:33.268Z,78.00
2022-12-26T12:24:22.061Z,78.20
2022-12-26T12:27:16.306Z,77.80
2022-12-26T12:29:52.176Z,77.80
2022-12-26T12:32:32.099Z,77.90
2022-12-26T12:35:12.608Z,77.80
2022-12-26T12:38:05.088Z,77.60
2022-12-26T12:40:31.926Z,77.50
2022-12-26T12:43:26.765Z,77.60
2022-12-26T12:46:01.121Z,77.60
2022-12-26T12:48:31.063Z,77.60
2022-12-26T12:51:13.021Z,77.40
2022-12-26T12:54:05.031Z,77.20
2022-12-26T12:56:44.576Z,77.40
2022-12-26T12:59:29.046Z,77.20
2022-12-26T13:02:09.777Z,76.90
2022-12-26T13:04:42.334Z,76.80
2022-12-26T13:07:25.082Z,76.90
2022-12-26T13:09:57.478Z,76.90
2022-12-26T13:12:44.033Z,77.10
2022-12-26T13:15:29.225Z,77.30
2022-12-26T13:18:11.989Z,77.40
2022-12-26T13:20:54.980Z,77.40
2022-12-26T13:24:15.128Z,77.60
2022-12-26T13:26:52.023Z,77.70
2022-12-26T13:29:18.904Z,77.60
2022-12-26T13:31:53.038Z,77.90
2022-12-26T13:34:20.725Z,77.80
2022-12-26T13:37:03.003Z,77.60
2022-12-26T13:39:39.049Z,77.70
2022-12-26T13:42:46.213Z,77.80
2022-12-26T13:45:42.742Z,77.80
2022-12-26T13:48:22.996Z,78.00
2022-12-26T13:51:01.133Z,78.00
2022-12-26T13:53:36.985Z,78.10
2022-12-26T13:56:31.103Z,78.40
2022-12-26T13:59:01.054Z,78.30
2022-12-26T14:01:55.605Z,78.30
2022-12-26T14:04:22.907Z,78.30
2022-12-26T14:07:15.107Z,78.40
2022-12-26T14:09:42.228Z,78.30
2022-12-26T14:12:31.100Z,78.40
2022-12-26T14:15:09.030Z,78.30
2022-12-26T14:17:51.088Z,78.30
2022-12-26T14:20:48.194Z,78.20
2022-12-26T14:23:49.078Z,78.60
2022-12-26T14:26:28.260Z,78.90
2022-12-26T14:29:17.008Z,78.80
2022-12-26T14:32:09.058Z,79.00
2022-12-26T14:34:44.928Z,78.50
2022-12-26T14:37:28.099Z,78.40
2022-12-26T14:40:14.075Z,78.60
2022-12-26T14:43:12.164Z,78.80
2022-12-26T14:45:46.138Z,79.00
2022-12-26T14:48:16.129Z,79.40
2022-12-26T14:50:56.067Z,80.00
2022-12-26T14:53:31.323Z,80.00
2022-12-26T14:56:17.498Z,80.20
2022-12-26T14:58:55.027Z,80.50
2022-12-26T15:01:28.131Z,80.30
2022-12-26T15:04:17.038Z,80.40
2022-12-26T15:06:56.001Z,80.30
2022-12-26T15:09:34.985Z,80.40
2022-12-26T15:12:05.088Z,80.30
2022-12-26T15:14:50.002Z,80.20
2022-12-26T15:17:19.954Z,80.50
2022-12-26T15:20:10.065Z,80.40
2022-12-26T15:23:01.034Z,80.50
2022-12-26T15:26:02.009Z,80.30
2022-12-26T15:28:53.999Z,80.30
2022-12-26T15:31:34.103Z,80.00
2022-12-26T15:34:20.054Z,80.50
2022-12-26T15:36:55.817Z,80.80
2022-12-26T15:39:47.022Z,80.30
2022-12-26T15:42:23.008Z,80.20
2022-12-26T15:45:00.940Z,80.40
2022-12-26T15:47:27.821Z,80.80
2022-12-26T15:50:20.067Z,80.60
2022-12-26T15:52:46.924Z,81.00
2022-12-26T15:55:43.038Z,81.10
2022-12-26T15:58:18.861Z,81.20
2022-12-26T16:01:00.006Z,81.60
2022-12-26T16:03:39.067Z,82.00
2022-12-26T16:06:17.553Z,82.30
2022-12-26T16:09:15.049Z,82.40
2022-12-26T16:11:47.893Z,82.30
2022-12-26T16:14:32.978Z,82.50
2022-12-26T16:17:21.021Z,82.80
2022-12-26T16:19:49.409Z,82.70
2022-12-26T16:22:56.067Z,82.90
2022-12-26T16:25:24.438Z,83.00
2022-12-26T16:28:05.067Z,83.20
2022-12-26T16:30:35.126Z,83.20
2022-12-26T16:33:09.044Z,83.10
2022-12-26T16:35:38.147Z,83.30
2022-12-26T16:38:13.047Z,83.40
2022-12-26T16:40:45.831Z,83.40
2022-12-26T16:43:22.077Z,83.50
2022-12-26T16:45:50.681Z,83.60
2022-12-26T16:48:25.062Z,83.60
2022-12-26T16:51:00.128Z,83.70
2022-12-26T16:53:43.085Z,83.80
2022-12-26T16:56:15.700Z,83.80
2022-12-26T16:58:49.043Z,83.80
2022-12-26T17:01:17.506Z,83.90
2022-12-26T17:04:03.046Z,84.00
2022-12-26T17:06:38.010Z,84.10
2022-12-26T17:09:12.842Z,84.20
2022-12-26T17:12:04.044Z,84.30
2022-12-26T17:14:40.072Z,84.40
2022-12-26T17:17:27.174Z,84.50
2022-12-26T17:20:02.068Z,84.60
2022-12-26T17:22:43.105Z,84.60
2022-12-26T17:25:30.499Z,84.70
2022-12-26T17:28:16.056Z,84.90
2022-12-26T17:30:51.147Z,84.90
2022-12-26T17:33:22.798Z,84.90
2022-12-26T17:36:52.454Z,85.00
2022-12-26T17:38:49.145Z,85.10
2022-12-26T17:41:24.083Z,85.10
2022-12-26T17:43:52.664Z,85.10
2022-12-26T17:46:26.112Z,85.20
2022-12-26T17:49:00.155Z,85.20
2022-12-26T17:51:36.088Z,85.20
2022-12-26T17:54:02.981Z,85.20
2022-12-26T17:56:36.079Z,85.20
2022-12-26T17:59:09.070Z,85.30
2022-12-26T18:01:36.189Z,85.40
2022-12-26T18:04:03.250Z,85.40
2022-12-26T18:06:37.139Z,85.40
2022-12-26T18:09:04.125Z,85.50
2022-12-26T18:11:31.008Z,85.60
2022-12-26T18:14:04.077Z,85.60
2022-12-26T18:16:37.107Z,85.80
2022-12-26T18:19:04.079Z,85.80
2022-12-26T18:21:38.107Z,85.90
2022-12-26T18:24:11.952Z,86.00
2022-12-26T18:26:45.056Z,85.90
2022-12-26T18:29:11.940Z,85.90
2022-12-26T18:31:46.121Z,85.90
2022-12-26T18:34:13.048Z,86.00
2022-12-26T18:36:49.395Z,86.10
2022-12-26T18:39:24.180Z,86.20
2022-12-26T18:41:51.128Z,86.40
2022-12-26T18:44:26.117Z,86.50
2022-12-26T18:46:53.051Z,86.60
2022-12-26T18:49:26.108Z,86.60
2022-12-26T18:51:52.977Z,86.70
2022-12-26T18:54:26.063Z,86.80
2022-12-26T18:56:59.093Z,86.80
2022-12-26T18:59:26.048Z,86.80
2022-12-26T19:01:59.078Z,86.80
2022-12-26T19:04:26.040Z,86.80
2022-12-26T19:06:53.554Z,86.80
2022-12-26T19:09:27.068Z,86.90
2022-12-26T19:11:53.983Z,86.80
2022-12-26T19:14:29.087Z,86.70
2022-12-26T19:16:56.012Z,86.60
2022-12-26T19:19:33.268Z,86.70
2022-12-26T19:22:14.192Z,86.70
2022-12-26T19:24:47.420Z,86.70
2022-12-26T19:27:21.157Z,86.60
2022-12-26T19:29:48.087Z,86.60
2022-12-26T19:32:21.134Z,86.50
2022-12-26T19:34:48.088Z,86.40
2022-12-26T19:37:15.140Z,86.30
2022-12-26T19:39:49.154Z,86.20
2022-12-26T19:42:16.433Z,86.10
2022-12-26T19:44:51.152Z,86.10
2022-12-26T19:47:18.376Z,86.00
2022-12-26T19:49:52.127Z,86.00
2022-12-26T19:52:19.008Z,85.90
2022-12-26T19:54:52.114Z,85.90
2022-12-26T19:57:19.223Z,85.90
2022-12-26T19:59:53.083Z,85.90
2022-12-26T20:02:20.243Z,85.90
2022-12-26T20:04:54.083Z,85.80
2022-12-26T20:07:21.508Z,85.70
2022-12-26T20:09:55.191Z,85.70
2022-12-26T20:12:29.162Z,85.60
2022-12-26T20:15:03.180Z,85.60
2022-12-26T20:17:30.399Z,85.60
2022-12-26T20:20:04.185Z,85.50
2022-12-26T20:22:37.477Z,85.40
2022-12-26T20:25:18.182Z,85.40
2022-12-26T20:27:45.252Z,85.40
2022-12-26T20:30:19.177Z,85.40
2022-12-26T20:32:54.179Z,85.40
2022-12-26T20:35:21.140Z,85.40
2022-12-26T20:37:54.089Z,85.40
2022-12-26T20:40:21.054Z,85.30
2022-12-26T20:42:54.148Z,85.30
2022-12-26T20:45:21.388Z,85.30
2022-12-26T20:47:56.557Z,85.20
2022-12-26T20:50:24.887Z,85.20
2022-12-26T20:52:58.249Z,85.20
2022-12-26T20:55:25.742Z,85.20
2022-12-26T20:57:59.125Z,85.50
2022-12-26T21:00:26.117Z,85.20
2022-12-26T21:03:00.433Z,85.00
2022-12-26T21:05:27.609Z,84.90
2022-12-26T21:08:01.116Z,84.90
2022-12-26T21:10:28.057Z,84.90
2022-12-26T21:13:01.076Z,84.90
2022-12-26T21:15:28.581Z,84.90
2022-12-26T21:18:02.107Z,84.90
2022-12-26T21:20:29.048Z,84.90
2022-12-26T21:23:09.112Z,84.90
2022-12-26T21:25:42.443Z,84.80
2022-12-26T21:28:16.074Z,84.80
2022-12-26T21:30:53.149Z,84.70
2022-12-26T21:33:27.098Z,84.70
2022-12-26T21:36:01.123Z,84.70
2022-12-26T21:38:29.118Z,84.70
2022-12-26T21:40:56.407Z,84.70
2022-12-26T21:43:37.122Z,84.70
2022-12-26T21:46:08.591Z,84.60
2022-12-26T21:48:42.133Z,84.50
2022-12-26T21:51:09.051Z,84.50
2022-12-26T21:53:42.147Z,84.50
2022-12-26T21:56:16.132Z,84.40
2022-12-26T21:59:09.133Z,84.40
2022-12-26T22:01:36.041Z,84.50
2022-12-26T22:04:28.124Z,84.30
2022-12-26T22:06:55.084Z,84.30
2022-12-26T22:09:28.130Z,84.10
2022-12-26T22:12:13.722Z,84.00
2022-12-26T22:14:47.127Z,83.90
2022-12-26T22:17:14.012Z,83.80
2022-12-26T22:19:48.426Z,83.80
2022-12-26T22:22:22.360Z,83.70
2022-12-26T22:25:02.118Z,83.50
2022-12-26T22:27:29.029Z,83.40
2022-12-26T22:30:02.086Z,83.20
2022-12-26T22:32:36.165Z,83.10
2022-12-26T22:35:16.519Z,83.00
2022-12-26T22:37:52.138Z,82.90
2022-12-26T22:40:19.079Z,82.80
2022-12-26T22:42:52.127Z,82.70
2022-12-26T22:45:18.978Z,82.70
2022-12-26T22:47:52.114Z,82.60
2022-12-26T22:50:26.103Z,82.50
2022-12-26T22:52:59.112Z,82.40
2022-12-26T22:55:32.112Z,82.40
2022-12-26T22:58:05.092Z,82.40
2022-12-26T23:00:38.213Z,82.50
2022-12-26T23:03:05.220Z,82.60
2022-12-26T23:05:39.185Z,82.80
2022-12-26T23:08:06.345Z,82.80
2022-12-26T23:10:40.104Z,82.90
2022-12-26T23:13:07.134Z,83.10
2022-12-26T23:15:43.151Z,83.40
2022-12-26T23:18:36.514Z,83.60
2022-12-26T23:21:34.123Z,83.60
2022-12-26T23:24:14.109Z,83.90
2022-12-26T23:26:53.732Z,83.80
2022-12-26T23:29:48.104Z,83.90
2022-12-26T23:32:15.250Z,83.80
2022-12-26T23:34:49.138Z,83.80
2022-12-26T23:37:16.001Z,83.80
2022-12-26T23:39:49.161Z,83.80
2022-12-26T23:42:16.094Z,83.80
2022-12-26T23:44:50.137Z,83.80
2022-12-26T23:47:17.105Z,83.80
2022-12-26T23:49:50.203Z,83.70
2022-12-26T23:52:17.156Z,83.70
2022-12-26T23:54:44.188Z,83.70
2022-12-26T23:57:18.185Z,83.70
2022-12-26T23:59:45.198Z,83.60
